Time;durP1;ratioP1;P1;durP2;ratioP2;P2;SDS_P1;SDS_P2;PMS_P1;PMS_P2;Temp;Humidity;BMP_temperature;BMP_pressure;BME280_temperature;BME280_humidity;BME280_pressure;Samples;Min_cycle;Max_cycle;Signal;HPM_P1;HPM_P2
2023/07/21 00:00:29;;;;;;;6.47;5.88;;;20.40;94.00;;;;;;5035527;28;20038;-66
2023/07/21 00:02:54;;;;;;;6.82;6.15;;;20.40;94.00;;;;;;5035389;28;20018;-67
2023/07/21 00:05:22;;;;;;;6.50;5.93;;;20.40;94.20;;;;;;5035361;28;20471;-67
2023/07/21 00:07:49;;;;;;;6.25;5.65;;;20.40;94.40;;;;;;5035219;28;20022;-66
2023/07/21 00:10:15;;;;;;;6.03;5.53;;;20.30;94.10;;;;;;5035276;28;20013;-66
2023/07/21 00:12:48;;;;;;;6.10;5.53;;;20.30;94.10;;;;;;5035499;28;20452;-67
2023/07/21 00:15:18;;;;;;;5.97;5.40;;;20.40;94.10;;;;;;5035264;28;20080;-70
2023/07/21 00:17:48;;;;;;;6.88;5.47;;;20.30;94.00;;;;;;5017350;28;20053;-66
2023/07/21 00:20:21;;;;;;;6.00;5.40;;;20.30;94.10;;;;;;5035173;28;20029;-66
2023/07/21 00:22:47;;;;;;;5.93;5.38;;;20.20;94.00;;;;;;5034838;28;20018;-66
2023/07/21 00:25:13;;;;;;;6.25;4.95;;;20.20;94.00;;;;;;5034996;28;20036;-70
2023/07/21 00:27:42;;;;;;;5.53;5.03;;;20.20;94.00;;;;;;5034926;28;20029;-66
2023/07/21 00:30:08;;;;;;;7.25;5.35;;;20.20;94.00;;;;;;5035040;28;20040;-66
2023/07/21 00:32:38;;;;;;;5.32;4.82;;;20.20;94.00;;;;;;5034854;28;20371;-70
2023/07/21 00:35:06;;;;;;;6.15;5.60;;;20.10;94.00;;;;;;5035008;28;20014;-67
2023/07/21 00:37:32;;;;;;;5.75;5.15;;;20.10;94.10;;;;;;5033271;28;20064;-66
2023/07/21 00:39:58;;;;;;;6.53;5.43;;;20.10;94.10;;;;;;5017106;28;20045;-68
2023/07/21 00:42:23;;;;;;;5.80;5.30;;;20.10;94.10;;;;;;5034613;28;20427;-68
2023/07/21 00:44:49;;;;;;;5.97;5.43;;;20.10;94.10;;;;;;5034732;28;20038;-66
2023/07/21 00:47:15;;;;;;;6.13;5.53;;;20.10;94.10;;;;;;5034623;28;20025;-66
2023/07/21 00:49:41;;;;;;;6.22;5.63;;;20.00;94.10;;;;;;5034532;28;20466;-70
2023/07/21 00:52:09;;;;;;;7.00;5.93;;;20.00;94.10;;;;;;5034390;28;20048;-66
2023/07/21 00:54:35;;;;;;;6.95;6.00;;;20.00;94.10;;;;;;5034419;28;20018;-66
2023/07/21 00:57:01;;;;;;;8.07;5.85;;;20.00;94.20;;;;;;5034709;28;20072;-70
2023/07/21 00:59:27;;;;;;;7.40;6.47;;;20.00;94.20;;;;;;5034227;28;20068;-66
2023/07/21 01:01:52;;;;;;;6.78;6.13;;;20.00;94.10;;;;;;5034534;28;20029;-66
2023/07/21 01:04:19;;;;;;;6.68;6.07;;;19.90;94.20;;;;;;5034001;28;20013;-68
2023/07/21 01:06:45;;;;;;;7.10;6.50;;;19.90;94.30;;;;;;5034215;28;20079;-67
2023/07/21 01:09:12;;;;;;;7.28;6.65;;;19.90;94.30;;;;;;5034299;28;20439;-66
2023/07/21 01:11:39;;;;;;;7.43;6.72;;;19.90;94.30;;;;;;5034245;28;20029;-70
2023/07/21 01:14:06;;;;;;;6.72;6.22;;;19.90;94.40;;;;;;5034070;28;20057;-67
2023/07/21 01:16:43;;;;;;;7.82;6.90;;;19.90;94.30;;;;;;5034131;28;20048;-67
2023/07/21 01:19:16;;;;;;;8.00;7.10;;;19.80;94.40;;;;;;5033919;28;20028;-68
2023/07/21 01:22:05;;;;;;;8.18;7.43;;;19.80;94.40;;;;;;5033751;28;20022;-67
2023/07/21 01:25:03;;;;;;;7.80;7.18;;;19.80;94.50;;;;;;5033760;28;20109;-68
2023/07/21 01:27:29;;;;;;;7.63;6.82;;;19.80;94.40;;;;;;5033832;28;20040;-71
2023/07/21 01:29:56;;;;;;;7.30;6.60;;;19.80;94.50;;;;;;5033782;28;20509;-68
2023/07/21 01:32:25;;;;;;;7.63;7.03;;;19.80;94.40;;;;;;5034148;28;20373;-67
2023/07/21 01:34:52;;;;;;;7.43;6.80;;;19.70;94.30;;;;;;5033687;28;20057;-70
2023/07/21 01:37:19;;;;;;;7.90;7.30;;;19.80;94.30;;;;;;5033423;28;20018;-71
2023/07/21 01:39:45;;;;;;;8.32;7.55;;;19.70;94.30;;;;;;5033479;28;20032;-67
2023/07/21 01:42:11;;;;;;;8.63;7.82;;;19.60;94.30;;;;;;5033875;28;20025;-67
2023/07/21 01:44:37;;;;;;;8.50;7.80;;;19.60;94.40;;;;;;5033513;28;20029;-67
2023/07/21 01:47:04;;;;;;;9.82;8.70;;;19.60;94.50;;;;;;5033557;28;20116;-66
2023/07/21 01:49:30;;;;;;;10.25;9.35;;;19.60;94.50;;;;;;5033492;28;20057;-70
2023/07/21 01:51:57;;;;;;;9.60;8.80;;;19.60;94.60;;;;;;5033200;28;20033;-67
2023/07/21 01:54:44;;;;;;;10.90;9.88;;;19.60;94.50;;;;;;5033433;28;20025;-66
2023/07/21 01:57:17;;;;;;;10.07;9.07;;;19.60;94.60;;;;;;5033510;28;20052;-67
2023/07/21 01:59:46;;;;;;;11.02;9.43;;;19.60;94.60;;;;;;5033232;28;20028;-67
2023/07/21 02:02:13;;;;;;;9.45;8.65;;;19.60;94.70;;;;;;5033472;28;20493;-67
2023/07/21 02:04:39;;;;;;;10.85;9.95;;;19.60;94.70;;;;;;5015120;28;20048;-66
2023/07/21 02:07:05;;;;;;;11.52;10.52;;;19.50;94.70;;;;;;5015678;28;20485;-66
2023/07/21 02:09:31;;;;;;;10.27;9.35;;;19.50;94.90;;;;;;5033089;28;20529;-70
2023/07/21 02:11:58;;;;;;;10.23;9.32;;;19.40;95.00;;;;;;5033249;28;20051;-66
2023/07/21 02:14:23;;;;;;;11.82;9.88;;;19.50;94.90;;;;;;5033055;28;20026;-71
2023/07/21 02:16:49;;;;;;;9.98;9.05;;;19.40;94.80;;;;;;5032524;28;20029;-66
2023/07/21 02:19:15;;;;;;;10.48;9.63;;;19.40;94.90;;;;;;5032588;28;20072;-70
2023/07/21 02:21:41;;;;;;;11.23;10.23;;;19.40;94.90;;;;;;5033263;28;20112;-67
2023/07/21 02:24:07;;;;;;;10.43;9.57;;;19.40;94.90;;;;;;5033354;28;20060;-66
2023/07/21 02:26:32;;;;;;;10.85;9.80;;;19.40;94.80;;;;;;5033008;28;20065;-67
2023/07/21 02:28:59;;;;;;;11.02;10.02;;;19.40;94.90;;;;;;5033184;28;20025;-66
2023/07/21 02:31:24;;;;;;;11.20;10.10;;;19.30;95.00;;;;;;5032962;28;20022;-66
2023/07/21 02:33:50;;;;;;;10.60;9.68;;;19.30;95.00;;;;;;5032984;28;20136;-71
2023/07/21 02:36:16;;;;;;;9.98;9.07;;;19.30;95.00;;;;;;5032901;28;20049;-67
2023/07/21 02:38:42;;;;;;;11.25;10.15;;;19.40;94.90;;;;;;5032984;28;20029;-67
2023/07/21 02:41:09;;;;;;;11.00;10.00;;;19.40;94.80;;;;;;5033057;28;20018;-71
2023/07/21 02:43:35;;;;;;;11.50;10.40;;;19.30;94.90;;;;;;5065769;28;20103;-66
2023/07/21 02:46:01;;;;;;;11.02;10.02;;;19.30;94.90;;;;;;5070559;28;20115;-66
2023/07/21 02:48:31;;;;;;;10.43;9.43;;;19.30;95.00;;;;;;5070208;28;20021;-71
2023/07/21 02:50:58;;;;;;;11.60;10.52;;;19.30;95.00;;;;;;5072816;28;20487;-70
2023/07/21 02:53:24;;;;;;;10.75;9.77;;;19.30;95.00;;;;;;5072679;28;20079;-67
2023/07/21 02:55:50;;;;;;;10.80;9.93;;;19.20;95.10;;;;;;5072626;28;20496;-70
2023/07/21 02:58:16;;;;;;;10.82;9.73;;;19.20;95.10;;;;;;5072664;28;20023;-70
2023/07/21 03:00:42;;;;;;;11.23;10.13;;;19.20;95.10;;;;;;5072555;28;20099;-66
2023/07/21 03:03:15;;;;;;;11.82;10.57;;;19.20;95.10;;;;;;5072590;28;20488;-66
2023/07/21 03:05:41;;;;;;;11.45;10.45;;;19.30;95.10;;;;;;5072481;28;20043;-70
2023/07/21 03:08:07;;;;;;;10.75;9.80;;;19.20;95.10;;;;;;5072634;28;20404;-67
2023/07/21 03:10:33;;;;;;;11.18;10.18;;;19.10;95.20;;;;;;5072577;28;20024;-66
2023/07/21 03:12:58;;;;;;;11.75;10.75;;;19.20;95.30;;;;;;5072353;28;20051;-71
2023/07/21 03:15:24;;;;;;;12.18;11.07;;;19.10;95.30;;;;;;5072400;28;20036;-67
2023/07/21 03:17:49;;;;;;;12.35;11.25;;;19.10;95.20;;;;;;5072130;28;20092;-67
2023/07/21 03:20:15;;;;;;;12.98;11.88;;;19.10;95.30;;;;;;5072553;28;20466;-70
2023/07/21 03:22:45;;;;;;;12.80;11.60;;;19.10;95.30;;;;;;5072348;28;20531;-66
2023/07/21 03:25:13;;;;;;;12.15;11.15;;;19.10;95.30;;;;;;5072444;28;20474;-66
2023/07/21 03:27:39;;;;;;;13.68;12.40;;;19.10;95.40;;;;;;5073085;28;20013;-66
2023/07/21 03:30:13;;;;;;;12.48;11.38;;;19.10;95.30;;;;;;5076015;28;20031;-71
2023/07/21 03:32:39;;;;;;;13.77;12.48;;;19.10;95.40;;;;;;5075797;28;20025;-67
2023/07/21 03:35:05;;;;;;;14.43;13.05;;;19.00;95.50;;;;;;5076044;28;20028;-66
2023/07/21 03:37:34;;;;;;;13.20;12.05;;;19.10;95.40;;;;;;5075754;28;20489;-71
2023/07/21 03:40:06;;;;;;;14.95;13.45;;;19.00;95.40;;;;;;5075964;28;20017;-66
2023/07/21 03:42:35;;;;;;;13.10;12.00;;;19.00;95.40;;;;;;5076025;28;20032;-66
2023/07/21 03:45:04;;;;;;;13.38;12.18;;;19.00;95.50;;;;;;5075844;28;20036;-66
2023/07/21 03:47:31;;;;;;;13.68;12.43;;;18.90;95.50;;;;;;5075329;28;20044;-71
2023/07/21 03:49:58;;;;;;;13.45;12.18;;;19.00;95.60;;;;;;5057754;28;20021;-67
2023/07/21 03:52:23;;;;;;;12.93;11.65;;;18.90;95.60;;;;;;5075428;28;20032;-66
2023/07/21 03:54:49;;;;;;;13.63;12.32;;;18.90;95.50;;;;;;5057592;28;20126;-70
2023/07/21 03:57:14;;;;;;;14.00;12.70;;;19.00;95.60;;;;;;5075557;28;20474;-66
2023/07/21 03:59:41;;;;;;;14.63;13.23;;;18.90;95.60;;;;;;5075671;28;20481;-69
2023/07/21 04:02:08;;;;;;;14.70;13.20;;;18.90;95.60;;;;;;5075201;28;20024;-70
2023/07/21 04:04:34;;;;;;;14.85;13.55;;;18.90;95.60;;;;;;5075573;28;20386;-67
2023/07/21 04:07:01;;;;;;;15.38;13.98;;;19.00;95.60;;;;;;5075275;28;20029;-66
2023/07/21 04:09:28;;;;;;;16.65;15.15;;;18.90;95.70;;;;;;5057418;28;20131;-71
2023/07/21 04:11:53;;;;;;;16.17;14.68;;;18.90;95.70;;;;;;5075260;28;20111;-70
2023/07/21 04:14:19;;;;;;;16.50;15.02;;;18.90;95.80;;;;;;5075398;28;20099;-66
2023/07/21 04:16:45;;;;;;;17.15;15.65;;;18.80;95.90;;;;;;5074826;28;20447;-68
2023/07/21 04:19:11;;;;;;;17.30;15.70;;;18.80;96.00;;;;;;5075096;28;20036;-66
2023/07/21 04:21:37;;;;;;;17.40;15.90;;;18.90;96.00;;;;;;5075024;28;20023;-67
2023/07/21 04:24:03;;;;;;;17.00;15.40;;;18.80;96.10;;;;;;5074998;28;20111;-66
2023/07/21 04:26:28;;;;;;;17.60;16.10;;;18.90;96.10;;;;;;5075098;28;20036;-70
2023/07/21 04:28:54;;;;;;;17.30;15.80;;;18.80;96.20;;;;;;5074885;28;20016;-66
2023/07/21 04:31:21;;;;;;;17.98;16.25;;;18.80;96.30;;;;;;5074795;28;20029;-66
2023/07/21 04:33:48;;;;;;;17.20;15.55;;;18.90;96.30;;;;;;5075037;28;20016;-71
2023/07/21 04:36:14;;;;;;;16.35;14.90;;;18.90;96.30;;;;;;5074874;28;20029;-66
2023/07/21 04:38:40;;;;;;;18.48;16.77;;;18.80;96.50;;;;;;5074339;28;20161;-67
2023/07/21 04:41:06;;;;;;;18.63;17.02;;;18.80;96.60;;;;;;5074499;28;20032;-67
2023/07/21 04:43:31;;;;;;;19.95;18.02;;;18.80;96.70;;;;;;5074815;28;20466;-66
2023/07/21 04:45:57;;;;;;;19.67;17.92;;;18.80;96.70;;;;;;5074299;28;20448;-67
2023/07/21 04:48:22;;;;;;;21.02;19.13;;;18.80;96.80;;;;;;5074552;28;20354;-70
2023/07/21 04:50:52;;;;;;;19.83;18.02;;;18.80;96.90;;;;;;5056380;28;20025;-68
2023/07/21 04:53:17;;;;;;;19.38;17.52;;;18.90;96.90;;;;;;5074383;28;20024;-66
2023/07/21 04:55:43;;;;;;;19.60;17.70;;;18.80;97.20;;;;;;5056509;28;20039;-70
2023/07/21 04:58:08;;;;;;;20.38;18.48;;;18.90;97.20;;;;;;5073991;28;20035;-66
2023/07/21 05:00:34;;;;;;;20.15;18.35;;;18.90;97.10;;;;;;5070127;28;20104;-66
2023/07/21 05:03:00;;;;;;;20.20;18.40;;;18.90;97.00;;;;;;5036373;28;20074;-69
2023/07/21 05:05:27;;;;;;;20.85;19.02;;;18.90;97.10;;;;;;5052589;28;20040;-70
2023/07/21 05:07:53;;;;;;;21.92;19.92;;;18.90;97.20;;;;;;5053996;28;20051;-66
2023/07/21 05:10:19;;;;;;;20.90;18.95;;;19.00;97.30;;;;;;5054368;28;20390;-70
2023/07/21 05:12:44;;;;;;;21.45;19.40;;;19.00;97.40;;;;;;5053847;28;20040;-66
2023/07/21 05:15:10;;;;;;;20.17;18.17;;;18.90;97.40;;;;;;5053922;28;20383;-70
2023/07/21 05:17:35;;;;;;;19.80;17.83;;;19.00;97.40;;;;;;5054074;28;20099;-67
2023/07/21 05:20:03;;;;;;;20.17;18.30;;;19.00;97.50;;;;;;5053846;28;20078;-70
2023/07/21 05:22:29;;;;;;;21.38;19.27;;;19.00;97.50;;;;;;5053944;28;20458;-69
2023/07/21 05:24:55;;;;;;;19.80;17.90;;;19.00;97.60;;;;;;5053606;28;20056;-68
2023/07/21 05:27:22;;;;;;;21.90;19.75;;;19.00;97.60;;;;;;5053554;28;20083;-72
2023/07/21 05:29:47;;;;;;;22.92;20.63;;;19.00;97.70;;;;;;5053865;28;20032;-68
2023/07/21 05:32:15;;;;;;;24.30;22.10;;;19.10;97.80;;;;;;5053739;28;20036;-69
2023/07/21 05:34:41;;;;;;;24.83;22.40;;;19.10;97.80;;;;;;5053611;28;20370;-67
2023/07/21 05:37:07;;;;;;;22.58;20.55;;;19.20;97.70;;;;;;5053688;28;20013;-67
2023/07/21 05:39:33;;;;;;;24.00;21.73;;;19.20;97.70;;;;;;5053341;28;20072;-69
2023/07/21 05:41:59;;;;;;;22.80;20.60;;;19.10;97.70;;;;;;5053371;28;20044;-71
2023/07/21 05:44:26;;;;;;;24.00;21.85;;;19.20;97.80;;;;;;5053611;28;20041;-67
2023/07/21 05:46:52;;;;;;;24.05;21.80;;;19.20;97.90;;;;;;5053564;28;20036;-67
2023/07/21 05:49:17;;;;;;;24.50;22.10;;;19.20;97.90;;;;;;5053322;28;20025;-71
2023/07/21 05:51:43;;;;;;;24.08;21.88;;;19.20;97.90;;;;;;5052373;28;20040;-70
2023/07/21 05:54:09;;;;;;;24.55;22.23;;;19.30;98.00;;;;;;5053332;28;20102;-71
2023/07/21 05:56:36;;;;;;;23.77;21.52;;;19.30;97.90;;;;;;5053236;28;20033;-72
2023/07/21 05:59:01;;;;;;;23.83;21.63;;;19.40;97.80;;;;;;5053184;28;20025;-70
2023/07/21 06:01:27;;;;;;;23.90;21.40;;;19.40;97.90;;;;;;5053387;28;20021;-69
2023/07/21 06:03:53;;;;;;;23.48;21.35;;;19.50;97.80;;;;;;5053342;28;20055;-68
2023/07/21 06:06:19;;;;;;;23.88;21.52;;;19.50;97.90;;;;;;5053434;28;20397;-70
2023/07/21 06:08:44;;;;;;;25.48;23.08;;;19.60;97.70;;;;;;5053214;28;20029;-69
2023/07/21 06:11:10;;;;;;;24.38;22.13;;;19.60;97.70;;;;;;5052689;28;20100;-70
2023/07/21 06:13:35;;;;;;;24.35;22.00;;;19.70;97.80;;;;;;5051997;28;20040;-67
2023/07/21 06:16:01;;;;;;;23.33;20.95;;;19.70;97.90;;;;;;5038323;28;20024;-68
2023/07/21 06:18:27;;;;;;;24.60;22.20;;;19.70;97.80;;;;;;5052886;28;20032;-67
2023/07/21 06:20:53;;;;;;;24.90;22.60;;;19.80;97.60;;;;;;5041932;28;20025;-71
2023/07/21 06:23:19;;;;;;;23.98;21.65;;;19.80;97.50;;;;;;5046140;28;20047;-71
2023/07/21 06:25:45;;;;;;;25.23;22.73;;;19.80;97.60;;;;;;5064787;28;20123;-67
2023/07/21 06:28:11;;;;;;;26.77;24.27;;;19.80;97.70;;;;;;5050772;28;20063;-66
2023/07/21 06:30:37;;;;;;;24.40;22.10;;;19.80;97.80;;;;;;5063819;28;20040;-71
2023/07/21 06:33:05;;;;;;;24.23;22.10;;;19.90;98.00;;;;;;5053384;28;20029;-68
2023/07/21 06:35:31;;;;;;;23.52;21.33;;;19.90;98.10;;;;;;5050590;28;20171;-68
2023/07/21 06:37:57;;;;;;;23.60;21.40;;;20.00;98.30;;;;;;5050463;28;20032;-67
2023/07/21 06:40:23;;;;;;;23.08;20.85;;;20.00;98.20;;;;;;5046587;28;20021;-68
2023/07/21 06:42:49;;;;;;;22.17;20.08;;;20.10;98.10;;;;;;5053485;28;20036;-68
2023/07/21 06:45:15;;;;;;;21.85;19.85;;;20.10;97.90;;;;;;5041463;28;20041;-69
2023/07/21 06:47:41;;;;;;;18.55;16.83;;;20.10;97.80;;;;;;5040721;28;20126;-66
2023/07/21 06:50:07;;;;;;;21.92;20.02;;;20.10;97.60;;;;;;5035963;28;20087;-66
2023/07/21 06:52:32;;;;;;;19.98;18.25;;;20.20;97.90;;;;;;5032373;28;20025;-71
2023/07/21 06:54:58;;;;;;;17.80;14.57;;;20.20;97.80;;;;;;5031773;28;20378;-67
2023/07/21 06:57:24;;;;;;;13.48;12.25;;;20.20;97.30;;;;;;5014424;28;20050;-67
2023/07/21 06:59:50;;;;;;;17.88;16.17;;;20.20;97.10;;;;;;5031918;28;20466;-69
2023/07/21 07:02:15;;;;;;;17.23;15.63;;;20.30;97.20;;;;;;5040802;28;20025;-71
2023/07/21 07:04:41;;;;;;;14.23;11.63;;;20.30;97.20;;;;;;5065158;28;20024;-69
2023/07/21 07:07:07;;;;;;;17.80;16.02;;;20.30;96.80;;;;;;5055903;28;20497;-67
2023/07/21 07:09:33;;;;;;;14.48;12.05;;;20.30;97.10;;;;;;5056117;28;20048;-71
2023/07/21 07:11:59;;;;;;;17.15;15.27;;;20.40;96.70;;;;;;5040831;28;20470;-68
2023/07/21 07:14:24;;;;;;;18.50;16.08;;;20.40;96.50;;;;;;5055791;28;20054;-68
2023/07/21 07:16:50;;;;;;;19.45;17.65;;;20.40;96.50;;;;;;5036275;28;20024;-68
2023/07/21 07:19:17;;;;;;;18.15;16.45;;;20.40;96.60;;;;;;5055960;28;20024;-67
2023/07/21 07:21:42;;;;;;;19.20;17.20;;;20.40;97.00;;;;;;5056200;28;20028;-67
2023/07/21 07:24:09;;;;;;;16.58;14.98;;;20.50;97.20;;;;;;5053939;28;20021;-67
2023/07/21 07:26:35;;;;;;;17.13;15.35;;;20.50;97.20;;;;;;5052098;28;20037;-70
2023/07/21 07:29:03;;;;;;;16.38;14.68;;;20.60;97.30;;;;;;5055393;28;20070;-67
2023/07/21 07:31:31;;;;;;;13.10;11.82;;;20.60;97.00;;;;;;5055098;28;20029;-66
2023/07/21 07:33:57;;;;;;;14.73;13.25;;;20.60;96.60;;;;;;5052743;28;20025;-69
2023/07/21 07:36:25;;;;;;;15.95;13.88;;;20.60;96.60;;;;;;5054337;28;20027;-68
2023/07/21 07:38:51;;;;;;;15.75;14.20;;;20.60;96.50;;;;;;5050836;28;20323;-66
2023/07/21 07:41:18;;;;;;;18.08;15.10;;;20.70;96.60;;;;;;5051157;28;20032;-66
2023/07/21 07:43:45;;;;;;;14.85;13.10;;;20.70;96.40;;;;;;5051895;28;20033;-66
2023/07/21 07:46:11;;;;;;;13.60;11.80;;;20.70;96.50;;;;;;5054660;28;20456;-69
2023/07/21 07:48:37;;;;;;;17.23;13.27;;;20.80;96.40;;;;;;5047966;28;20577;-67
2023/07/21 07:51:04;;;;;;;12.32;11.10;;;20.80;96.40;;;;;;5054145;28;20055;-67
2023/07/21 07:53:31;;;;;;;12.20;10.98;;;20.90;96.60;;;;;;5054269;28;20892;-66
2023/07/21 07:55:57;;;;;;;11.82;10.15;;;20.90;96.40;;;;;;5050633;28;20025;-66
2023/07/21 07:58:22;;;;;;;12.30;10.15;;;20.90;96.30;;;;;;5036606;28;20051;-66
2023/07/21 08:00:48;;;;;;;12.40;11.10;;;21.00;96.10;;;;;;5046088;28;20120;-65
2023/07/21 08:03:14;;;;;;;14.32;12.85;;;21.00;96.10;;;;;;5044189;28;20377;-65
2023/07/21 08:05:41;;;;;;;14.38;10.20;;;21.00;95.60;;;;;;5054500;28;20028;-64
2023/07/21 08:08:08;;;;;;;14.82;11.82;;;21.00;95.70;;;;;;5063993;28;20026;-64
2023/07/21 08:10:34;;;;;;;13.07;10.65;;;21.10;95.50;;;;;;5054023;28;20033;-65
2023/07/21 08:13:04;;;;;;;13.98;9.52;;;21.10;95.50;;;;;;5041967;28;20124;-63
2023/07/21 08:15:30;;;;;;;9.82;8.52;;;21.10;95.20;;;;;;5051523;28;20103;-65
2023/07/21 08:17:56;;;;;;;12.32;8.68;;;21.10;95.10;;;;;;5055574;28;20024;-63
2023/07/21 08:20:21;;;;;;;10.00;9.00;;;21.20;95.00;;;;;;5049194;28;20025;-66
2023/07/21 08:22:48;;;;;;;11.32;8.93;;;21.20;95.00;;;;;;5054578;28;20024;-65
2023/07/21 08:25:15;;;;;;;12.70;9.05;;;21.20;94.90;;;;;;5047541;28;20060;-67
2023/07/21 08:27:41;;;;;;;9.73;8.73;;;21.20;94.80;;;;;;5046084;28;20033;-65
2023/07/21 08:30:08;;;;;;;11.77;9.30;;;21.30;94.70;;;;;;5047386;28;20052;-67
2023/07/21 08:32:36;;;;;;;9.15;8.20;;;21.30;94.50;;;;;;5048241;28;20079;-65
2023/07/21 08:35:02;;;;;;;10.20;7.43;;;21.30;94.70;;;;;;5044712;28;20035;-64
2023/07/21 08:37:27;;;;;;;8.98;7.60;;;21.30;94.30;;;;;;5048725;28;20025;-65
2023/07/21 08:39:53;;;;;;;8.95;8.05;;;21.30;94.30;;;;;;5051633;28;20092;-68
2023/07/21 08:42:23;;;;;;;8.90;7.57;;;21.30;94.30;;;;;;5054124;28;20394;-68
2023/07/21 08:44:50;;;;;;;11.77;8.68;;;21.40;94.20;;;;;;5056480;28;20028;-67
2023/07/21 08:47:16;;;;;;;9.90;8.75;;;21.40;94.10;;;;;;5053545;28;20059;-64
2023/07/21 08:49:51;;;;;;;12.35;9.90;;;21.40;94.00;;;;;;5053243;28;20029;-65
2023/07/21 08:52:18;;;;;;;8.93;7.15;;;21.40;93.90;;;;;;5038477;28;20040;-64
2023/07/21 08:54:53;;;;;;;10.80;7.63;;;21.40;93.90;;;;;;5055178;28;20042;-64
2023/07/21 08:57:25;;;;;;;10.98;7.00;;;21.50;93.80;;;;;;5043212;28;20075;-63
2023/07/21 08:59:54;;;;;;;9.30;7.03;;;21.50;93.70;;;;;;5046441;28;20072;-65
2023/07/21 09:02:44;;;;;;;8.50;6.20;;;21.50;93.70;;;;;;5053069;28;20031;-65
2023/07/21 09:05:16;;;;;;;7.93;6.47;;;21.60;93.60;;;;;;5045972;28;20418;-69
2023/07/21 09:07:42;;;;;;;8.38;6.65;;;21.50;93.50;;;;;;5047602;28;20041;-65
2023/07/21 09:10:09;;;;;;;7.65;6.00;;;21.60;93.50;;;;;;5045314;28;20025;-66
2023/07/21 09:12:36;;;;;;;6.78;6.07;;;21.60;93.40;;;;;;5049311;28;20063;-67
2023/07/21 09:15:10;;;;;;;6.13;5.53;;;21.60;93.20;;;;;;5047906;28;20330;-65
2023/07/21 09:17:40;;;;;;;5.47;4.47;;;21.60;93.20;;;;;;5048381;28;20488;-65
2023/07/21 09:20:09;;;;;;;7.65;4.38;;;21.70;93.10;;;;;;5048234;28;20078;-65
2023/07/21 09:22:34;;;;;;;4.90;3.83;;;21.70;93.00;;;;;;5047850;28;20079;-69
2023/07/21 09:25:00;;;;;;;4.95;3.92;;;21.70;93.00;;;;;;5043920;28;20486;-64
2023/07/21 09:27:25;;;;;;;9.23;3.92;;;21.70;93.00;;;;;;5048087;28;20078;-69
2023/07/21 09:30:02;;;;;;;10.95;4.60;;;21.70;92.90;;;;;;5048596;28;20382;-69
2023/07/21 09:32:28;;;;;;;8.15;6.07;;;21.80;92.80;;;;;;5051831;28;20032;-66
2023/07/21 09:34:59;;;;;;;7.07;5.68;;;21.80;92.30;;;;;;5052913;28;20508;-66
2023/07/21 09:37:26;;;;;;;7.97;7.20;;;21.80;92.30;;;;;;5040033;28;20548;-65
2023/07/21 09:39:57;;;;;;;10.73;6.70;;;21.80;92.50;;;;;;5044064;28;20025;-66
2023/07/21 09:42:27;;;;;;;11.23;6.07;;;21.80;92.60;;;;;;5042614;28;20115;-68
2023/07/21 09:44:54;;;;;;;7.18;6.30;;;21.80;92.90;;;;;;5047642;28;20096;-67
2023/07/21 09:47:21;;;;;;;8.40;7.70;;;21.80;94.10;;;;;;5051494;28;20020;-65
2023/07/21 09:49:48;;;;;;;6.60;5.50;;;21.80;95.10;;;;;;5049940;28;20086;-68
2023/07/21 09:52:16;;;;;;;5.35;3.83;;;21.90;94.70;;;;;;5043001;28;20074;-67
2023/07/21 09:54:45;;;;;;;6.60;3.30;;;21.90;94.80;;;;;;5056698;28;20029;-65
2023/07/21 09:57:16;;;;;;;6.50;4.78;;;21.90;94.60;;;;;;5044229;28;20484;-66
2023/07/21 09:59:48;;;;;;;8.60;5.30;;;21.90;94.90;;;;;;5047232;28;20124;-64
2023/07/21 10:02:16;;;;;;;15.55;6.57;;;21.90;95.20;;;;;;5049886;28;20066;-65
2023/07/21 10:04:43;;;;;;;10.70;7.00;;;21.90;96.00;;;;;;5034814;28;20060;-65
2023/07/21 10:07:10;;;;;;;7.80;4.53;;;21.90;97.00;;;;;;5049864;28;20035;-65
2023/07/21 10:09:36;;;;;;;7.35;4.72;;;21.90;96.20;;;;;;5049244;28;20039;-65
2023/07/21 10:12:39;;;;;;;7.93;5.18;;;21.90;96.40;;;;;;5046396;28;20044;-66
2023/07/21 10:15:16;;;;;;;5.30;3.85;;;21.90;96.90;;;;;;5025703;28;20028;-66
2023/07/21 10:17:59;;;;;;;5.90;4.30;;;21.90;96.70;;;;;;5051858;28;20024;-67
2023/07/21 10:20:41;;;;;;;5.30;4.80;;;21.90;97.40;;;;;;5046551;28;20113;-68
2023/07/21 10:23:07;;;;;;;5.78;5.20;;;21.90;97.30;;;;;;5050232;28;20048;-67
2023/07/21 10:25:51;;;;;;;4.80;3.97;;;21.90;97.00;;;;;;5051131;28;20075;-66
2023/07/21 10:28:44;;;;;;;4.00;3.55;;;21.90;96.90;;;;;;5051906;28;20112;-66
2023/07/21 10:31:22;;;;;;;5.57;3.13;;;22.00;96.50;;;;;;5047600;28;20072;-66
2023/07/21 10:34:06;;;;;;;4.93;3.25;;;22.00;96.20;;;;;;5055462;28;20061;-66
2023/07/21 10:36:40;;;;;;;8.93;3.67;;;22.00;96.20;;;;;;5047836;28;20029;-66
2023/07/21 10:39:16;;;;;;;4.80;2.95;;;22.00;96.00;;;;;;5056649;28;20079;-65
2023/07/21 10:41:45;;;;;;;6.13;3.00;;;22.00;96.00;;;;;;5054131;28;20025;-69
2023/07/21 10:44:11;;;;;;;3.38;2.83;;;22.00;96.20;;;;;;5059630;28;20074;-66
2023/07/21 10:46:42;;;;;;;3.70;2.92;;;22.00;96.10;;;;;;5036386;28;20083;-68
2023/07/21 10:49:09;;;;;;;8.18;3.50;;;22.00;96.30;;;;;;5051662;28;20040;-65
2023/07/21 10:51:36;;;;;;;6.30;4.88;;;22.10;96.30;;;;;;5052612;28;20559;-66
2023/07/21 10:54:03;;;;;;;8.63;5.45;;;22.10;96.70;;;;;;5054149;28;20021;-67
2023/07/21 10:56:29;;;;;;;5.20;4.10;;;22.10;97.30;;;;;;5055218;28;21116;-65
2023/07/21 10:58:55;;;;;;;5.78;4.20;;;22.10;97.10;;;;;;5034345;28;20532;-63
2023/07/21 11:01:21;;;;;;;6.18;4.57;;;22.10;96.70;;;;;;5052713;28;20024;-63
2023/07/21 11:03:48;;;;;;;5.35;4.30;;;22.10;96.70;;;;;;5056577;28;20021;-61
2023/07/21 11:06:14;;;;;;;4.30;3.85;;;22.10;96.90;;;;;;5054925;28;20039;-63
2023/07/21 11:08:40;;;;;;;7.40;4.88;;;22.10;97.00;;;;;;5053097;28;20028;-62
2023/07/21 11:11:08;;;;;;;5.38;4.88;;;22.10;97.20;;;;;;5046574;28;20025;-68
2023/07/21 11:13:33;;;;;;;5.75;5.15;;;22.10;97.60;;;;;;5059926;28;20556;-68
2023/07/21 11:16:00;;;;;;;6.80;4.80;;;22.10;97.00;;;;;;5053890;28;20058;-65
2023/07/21 11:18:28;;;;;;;5.72;4.40;;;22.10;96.80;;;;;;5051374;28;20029;-70
2023/07/21 11:20:54;;;;;;;5.82;4.40;;;22.10;96.60;;;;;;5050394;28;20028;-63
2023/07/21 11:23:24;;;;;;;5.85;4.32;;;22.10;96.80;;;;;;5050292;28;20052;-66
2023/07/21 11:26:19;;;;;;;3.33;2.90;;;22.20;97.20;;;;;;5047445;28;20040;-65
2023/07/21 11:28:45;;;;;;;5.45;3.10;;;22.10;96.50;;;;;;5029283;28;20041;-69
2023/07/21 11:31:14;;;;;;;5.68;2.70;;;22.20;96.50;;;;;;5056960;28;20029;-63
2023/07/21 11:33:48;;;;;;;7.60;4.20;;;22.10;96.30;;;;;;5053195;28;20025;-62
2023/07/21 11:36:21;;;;;;;5.82;5.20;;;22.20;97.20;;;;;;5052313;28;20020;-68
2023/07/21 11:39:04;;;;;;;7.57;6.22;;;22.20;97.10;;;;;;5056809;28;20056;-64
2023/07/21 11:41:41;;;;;;;6.13;5.15;;;22.20;96.40;;;;;;5055109;28;20033;-62
2023/07/21 11:44:12;;;;;;;7.85;5.00;;;22.20;96.20;;;;;;5063739;28;20025;-66
2023/07/21 11:46:38;;;;;;;6.70;5.40;;;22.20;95.80;;;;;;5067871;28;20036;-64
2023/07/21 11:49:10;;;;;;;7.05;5.63;;;22.20;95.70;;;;;;5033829;28;20546;-61
2023/07/21 11:51:53;;;;;;;6.28;5.57;;;22.20;96.00;;;;;;5028177;28;20548;-69
2023/07/21 11:54:23;;;;;;;6.82;5.78;;;22.30;96.20;;;;;;5055007;28;20020;-63
2023/07/21 11:56:49;;;;;;;5.80;5.20;;;22.30;96.20;;;;;;5052594;28;20029;-67
2023/07/21 11:59:16;;;;;;;6.55;5.65;;;22.20;96.30;;;;;;5052523;28;20019;-63
2023/07/21 12:01:42;;;;;;;6.80;4.88;;;22.30;96.50;;;;;;5068216;28;20032;-68
2023/07/21 12:04:09;;;;;;;6.82;5.38;;;22.30;96.30;;;;;;5066597;28;20104;-64
2023/07/21 12:06:35;;;;;;;8.05;5.53;;;22.30;96.40;;;;;;5052361;28;20036;-65
2023/07/21 12:09:01;;;;;;;9.02;6.78;;;22.30;95.70;;;;;;5060738;28;20032;-63
2023/07/21 12:11:27;;;;;;;7.97;6.78;;;22.30;94.90;;;;;;5055333;28;20037;-65
2023/07/21 12:13:53;;;;;;;7.93;5.40;;;22.30;94.40;;;;;;5053349;28;20033;-65
2023/07/21 12:16:19;;;;;;;7.63;5.10;;;22.30;95.10;;;;;;5053710;28;20025;-67
2023/07/21 12:18:44;;;;;;;6.93;5.75;;;22.30;95.00;;;;;;5048426;28;20025;-63
2023/07/21 12:21:12;;;;;;;7.65;5.03;;;22.30;94.90;;;;;;5054197;28;20469;-64
2023/07/21 12:23:37;;;;;;;6.38;5.13;;;22.30;94.90;;;;;;5059275;28;20028;-69
2023/07/21 12:26:03;;;;;;;7.47;5.30;;;22.40;94.40;;;;;;5055359;28;20024;-65
2023/07/21 12:28:29;;;;;;;6.78;5.55;;;22.40;94.10;;;;;;5038295;28;20041;-64
2023/07/21 12:30:54;;;;;;;7.63;5.60;;;22.40;93.80;;;;;;5073178;28;20024;-66
2023/07/21 12:33:20;;;;;;;6.22;5.25;;;22.40;93.10;;;;;;5050260;28;20112;-63
2023/07/21 12:35:46;;;;;;;5.70;5.00;;;22.40;92.70;;;;;;5054311;28;20393;-64
2023/07/21 12:38:12;;;;;;;6.35;4.45;;;22.40;91.90;;;;;;5051547;28;20021;-66
2023/07/21 12:40:37;;;;;;;6.07;4.95;;;22.40;91.00;;;;;;5049331;28;20033;-66